sensor_id;sensor_type;location;lat;lon;timestamp;temperature;humidity
55785;DHT22;41709;52.536;5.688;2024-02-14T00:00:39;8.10;95.60
55785;DHT22;41709;52.536;5.688;2024-02-14T00:03:06;8.00;96.00
55785;DHT22;41709;52.536;5.688;2024-02-14T00:05:32;8.10;95.70
55785;DHT22;41709;52.536;5.688;2024-02-14T00:07:57;8.10;95.80
55785;DHT22;41709;52.536;5.688;2024-02-14T00:10:23;8.10;95.80
55785;DHT22;41709;52.536;5.688;2024-02-14T00:12:49;8.10;95.90
55785;DHT22;41709;52.536;5.688;2024-02-14T00:15:14;8.10;96.00
55785;DHT22;41709;52.536;5.688;2024-02-14T00:17:40;8.10;96.10
55785;DHT22;41709;52.536;5.688;2024-02-14T00:20:06;8.00;96.20
55785;DHT22;41709;52.536;5.688;2024-02-14T00:22:32;8.00;96.20
55785;DHT22;41709;52.536;5.688;2024-02-14T00:24:57;8.00;96.20
55785;DHT22;41709;52.536;5.688;2024-02-14T00:27:23;8.10;96.20
55785;DHT22;41709;52.536;5.688;2024-02-14T00:29:50;8.10;96.20
55785;DHT22;41709;52.536;5.688;2024-02-14T00:32:16;8.10;96.20
55785;DHT22;41709;52.536;5.688;2024-02-14T00:34:41;8.10;96.30
55785;DHT22;41709;52.536;5.688;2024-02-14T00:37:07;8.10;96.30
55785;DHT22;41709;52.536;5.688;2024-02-14T00:39:33;8.20;96.40
55785;DHT22;41709;52.536;5.688;2024-02-14T00:41:58;8.10;96.40
55785;DHT22;41709;52.536;5.688;2024-02-14T00:44:24;8.20;96.40
55785;DHT22;41709;52.536;5.688;2024-02-14T00:46:56;8.10;96.40
55785;DHT22;41709;52.536;5.688;2024-02-14T00:49:22;8.10;96.40
55785;DHT22;41709;52.536;5.688;2024-02-14T00:51:47;8.10;96.50
55785;DHT22;41709;52.536;5.688;2024-02-14T00:54:13;8.20;96.60
55785;DHT22;41709;52.536;5.688;2024-02-14T00:56:39;8.20;96.60
55785;DHT22;41709;52.536;5.688;2024-02-14T00:59:05;8.20;96.60
55785;DHT22;41709;52.536;5.688;2024-02-14T01:01:31;8.20;96.60
55785;DHT22;41709;52.536;5.688;2024-02-14T01:03:56;8.20;96.60
55785;DHT22;41709;52.536;5.688;2024-02-14T01:06:22;8.20;96.60
55785;DHT22;41709;52.536;5.688;2024-02-14T01:08:48;8.20;96.60
55785;DHT22;41709;52.536;5.688;2024-02-14T01:11:13;8.30;96.60
55785;DHT22;41709;52.536;5.688;2024-02-14T01:13:39;8.30;96.60
55785;DHT22;41709;52.536;5.688;2024-02-14T01:16:05;8.30;96.70
55785;DHT22;41709;52.536;5.688;2024-02-14T01:18:30;8.20;96.70
55785;DHT22;41709;52.536;5.688;2024-02-14T01:20:57;8.30;96.70
55785;DHT22;41709;52.536;5.688;2024-02-14T01:23:24;8.30;96.80
55785;DHT22;41709;52.536;5.688;2024-02-14T01:25:50;8.30;96.80
55785;DHT22;41709;52.536;5.688;2024-02-14T01:28:15;8.30;96.70
55785;DHT22;41709;52.536;5.688;2024-02-14T01:30:42;8.40;96.80
55785;DHT22;41709;52.536;5.688;2024-02-14T01:33:08;8.30;96.80
55785;DHT22;41709;52.536;5.688;2024-02-14T01:35:34;8.40;96.90
55785;DHT22;41709;52.536;5.688;2024-02-14T01:37:59;8.40;97.00
55785;DHT22;41709;52.536;5.688;2024-02-14T01:40:26;8.40;97.00
55785;DHT22;41709;52.536;5.688;2024-02-14T01:42:51;8.40;97.00
55785;DHT22;41709;52.536;5.688;2024-02-14T01:45:17;8.40;97.10
55785;DHT22;41709;52.536;5.688;2024-02-14T01:47:43;8.40;97.10
55785;DHT22;41709;52.536;5.688;2024-02-14T01:50:09;8.40;97.10
55785;DHT22;41709;52.536;5.688;2024-02-14T01:52:37;8.40;97.20
55785;DHT22;41709;52.536;5.688;2024-02-14T01:55:05;8.40;97.20
55785;DHT22;41709;52.536;5.688;2024-02-14T01:57:33;8.50;97.30
55785;DHT22;41709;52.536;5.688;2024-02-14T02:00:01;8.50;97.20
55785;DHT22;41709;52.536;5.688;2024-02-14T02:02:33;8.50;97.40
55785;DHT22;41709;52.536;5.688;2024-02-14T02:04:59;8.50;97.60
55785;DHT22;41709;52.536;5.688;2024-02-14T02:07:24;8.50;97.50
55785;DHT22;41709;52.536;5.688;2024-02-14T02:09:50;8.50;97.60
55785;DHT22;41709;52.536;5.688;2024-02-14T02:12:16;8.50;97.60
55785;DHT22;41709;52.536;5.688;2024-02-14T02:14:41;8.60;97.70
55785;DHT22;41709;52.536;5.688;2024-02-14T02:17:07;8.60;97.80
55785;DHT22;41709;52.536;5.688;2024-02-14T02:19:34;8.60;97.90
55785;DHT22;41709;52.536;5.688;2024-02-14T02:22:01;8.60;97.90
55785;DHT22;41709;52.536;5.688;2024-02-14T02:24:27;8.60;98.00
55785;DHT22;41709;52.536;5.688;2024-02-14T02:26:52;8.60;98.00
55785;DHT22;41709;52.536;5.688;2024-02-14T02:29:18;8.60;98.10
55785;DHT22;41709;52.536;5.688;2024-02-14T02:31:45;8.70;98.20
55785;DHT22;41709;52.536;5.688;2024-02-14T02:34:11;8.70;98.20
55785;DHT22;41709;52.536;5.688;2024-02-14T02:36:37;8.70;98.30
55785;DHT22;41709;52.536;5.688;2024-02-14T02:39:03;8.80;98.20
55785;DHT22;41709;52.536;5.688;2024-02-14T02:41:30;8.80;98.20
55785;DHT22;41709;52.536;5.688;2024-02-14T02:43:57;8.80;98.30
55785;DHT22;41709;52.536;5.688;2024-02-14T02:46:23;8.80;98.30
55785;DHT22;41709;52.536;5.688;2024-02-14T02:48:48;8.80;98.30
55785;DHT22;41709;52.536;5.688;2024-02-14T02:51:16;8.90;98.30
55785;DHT22;41709;52.536;5.688;2024-02-14T02:53:43;8.90;98.30
55785;DHT22;41709;52.536;5.688;2024-02-14T02:56:08;8.90;98.30
55785;DHT22;41709;52.536;5.688;2024-02-14T02:58:34;8.90;98.30
55785;DHT22;41709;52.536;5.688;2024-02-14T03:00:59;8.90;98.40
55785;DHT22;41709;52.536;5.688;2024-02-14T03:03:25;9.00;98.30
55785;DHT22;41709;52.536;5.688;2024-02-14T03:05:52;8.90;98.30
55785;DHT22;41709;52.536;5.688;2024-02-14T03:08:19;9.00;98.40
55785;DHT22;41709;52.536;5.688;2024-02-14T03:10:44;9.00;98.50
55785;DHT22;41709;52.536;5.688;2024-02-14T03:13:11;9.00;98.50
55785;DHT22;41709;52.536;5.688;2024-02-14T03:15:39;9.00;98.60
55785;DHT22;41709;52.536;5.688;2024-02-14T03:18:05;9.00;98.50
55785;DHT22;41709;52.536;5.688;2024-02-14T03:20:35;9.00;98.50
55785;DHT22;41709;52.536;5.688;2024-02-14T03:23:01;9.00;98.50
55785;DHT22;41709;52.536;5.688;2024-02-14T03:25:28;9.00;98.50
55785;DHT22;41709;52.536;5.688;2024-02-14T03:27:54;9.00;98.50
55785;DHT22;41709;52.536;5.688;2024-02-14T03:30:22;9.00;98.50
55785;DHT22;41709;52.536;5.688;2024-02-14T03:32:48;9.10;98.40
55785;DHT22;41709;52.536;5.688;2024-02-14T03:35:14;9.10;98.40
55785;DHT22;41709;52.536;5.688;2024-02-14T03:37:41;9.10;98.30
55785;DHT22;41709;52.536;5.688;2024-02-14T03:40:08;9.20;98.30
55785;DHT22;41709;52.536;5.688;2024-02-14T03:42:35;9.20;98.30
55785;DHT22;41709;52.536;5.688;2024-02-14T03:45:01;9.20;98.20
55785;DHT22;41709;52.536;5.688;2024-02-14T03:47:31;9.20;98.20
55785;DHT22;41709;52.536;5.688;2024-02-14T03:49:58;9.20;98.30
55785;DHT22;41709;52.536;5.688;2024-02-14T03:52:23;9.10;98.40
55785;DHT22;41709;52.536;5.688;2024-02-14T03:54:50;9.20;98.40
55785;DHT22;41709;52.536;5.688;2024-02-14T03:57:16;9.20;98.20
55785;DHT22;41709;52.536;5.688;2024-02-14T03:59:43;9.20;98.30
55785;DHT22;41709;52.536;5.688;2024-02-14T04:02:10;9.20;98.40
55785;DHT22;41709;52.536;5.688;2024-02-14T04:04:38;9.20;98.30
55785;DHT22;41709;52.536;5.688;2024-02-14T04:07:06;9.20;98.30
55785;DHT22;41709;52.536;5.688;2024-02-14T04:09:34;9.20;98.30
55785;DHT22;41709;52.536;5.688;2024-02-14T04:11:59;9.30;98.20
55785;DHT22;41709;52.536;5.688;2024-02-14T04:14:25;9.30;98.20
55785;DHT22;41709;52.536;5.688;2024-02-14T04:16:51;9.30;98.20
55785;DHT22;41709;52.536;5.688;2024-02-14T04:19:16;9.40;98.20
55785;DHT22;41709;52.536;5.688;2024-02-14T04:21:43;9.40;98.10
55785;DHT22;41709;52.536;5.688;2024-02-14T04:24:08;9.40;98.10
55785;DHT22;41709;52.536;5.688;2024-02-14T04:26:34;9.40;98.20
55785;DHT22;41709;52.536;5.688;2024-02-14T04:29:00;9.40;98.20
55785;DHT22;41709;52.536;5.688;2024-02-14T04:31:26;9.40;98.10
55785;DHT22;41709;52.536;5.688;2024-02-14T04:33:52;9.40;98.20
55785;DHT22;41709;52.536;5.688;2024-02-14T04:36:19;9.40;98.30
55785;DHT22;41709;52.536;5.688;2024-02-14T04:38:51;9.40;98.20
55785;DHT22;41709;52.536;5.688;2024-02-14T04:41:21;9.40;98.40
55785;DHT22;41709;52.536;5.688;2024-02-14T04:43:46;9.40;98.70
55785;DHT22;41709;52.536;5.688;2024-02-14T04:46:12;9.50;98.40
55785;DHT22;41709;52.536;5.688;2024-02-14T04:48:38;9.50;98.40
55785;DHT22;41709;52.536;5.688;2024-02-14T04:51:05;9.50;98.40
55785;DHT22;41709;52.536;5.688;2024-02-14T04:53:31;9.50;98.40
55785;DHT22;41709;52.536;5.688;2024-02-14T04:55:57;9.50;98.40
55785;DHT22;41709;52.536;5.688;2024-02-14T04:58:23;9.50;98.50
55785;DHT22;41709;52.536;5.688;2024-02-14T05:00:49;9.50;98.60
55785;DHT22;41709;52.536;5.688;2024-02-14T05:03:14;9.50;98.60
55785;DHT22;41709;52.536;5.688;2024-02-14T05:05:41;9.50;98.60
55785;DHT22;41709;52.536;5.688;2024-02-14T05:08:07;9.50;98.60
55785;DHT22;41709;52.536;5.688;2024-02-14T05:10:32;9.60;98.60
55785;DHT22;41709;52.536;5.688;2024-02-14T05:12:58;9.60;98.60
55785;DHT22;41709;52.536;5.688;2024-02-14T05:15:23;9.60;98.60
55785;DHT22;41709;52.536;5.688;2024-02-14T05:17:49;9.60;98.70
55785;DHT22;41709;52.536;5.688;2024-02-14T05:20:18;9.60;98.60
55785;DHT22;41709;52.536;5.688;2024-02-14T05:22:44;9.70;98.60
55785;DHT22;41709;52.536;5.688;2024-02-14T05:25:09;9.60;98.80
55785;DHT22;41709;52.536;5.688;2024-02-14T05:27:36;9.60;98.80
55785;DHT22;41709;52.536;5.688;2024-02-14T05:30:05;9.70;98.80
55785;DHT22;41709;52.536;5.688;2024-02-14T05:32:31;9.70;98.70
55785;DHT22;41709;52.536;5.688;2024-02-14T05:34:57;9.70;98.60
55785;DHT22;41709;52.536;5.688;2024-02-14T05:37:23;9.70;98.60
55785;DHT22;41709;52.536;5.688;2024-02-14T05:39:48;9.70;98.60
55785;DHT22;41709;52.536;5.688;2024-02-14T05:42:14;9.70;98.70
55785;DHT22;41709;52.536;5.688;2024-02-14T05:44:41;9.70;98.80
55785;DHT22;41709;52.536;5.688;2024-02-14T05:47:08;9.70;98.80
55785;DHT22;41709;52.536;5.688;2024-02-14T05:49:34;9.70;98.70
55785;DHT22;41709;52.536;5.688;2024-02-14T05:51:59;9.70;98.80
55785;DHT22;41709;52.536;5.688;2024-02-14T05:54:25;9.70;98.80
55785;DHT22;41709;52.536;5.688;2024-02-14T05:56:51;9.80;98.80
55785;DHT22;41709;52.536;5.688;2024-02-14T05:59:16;9.80;98.80
55785;DHT22;41709;52.536;5.688;2024-02-14T06:01:42;9.80;98.80
55785;DHT22;41709;52.536;5.688;2024-02-14T06:04:07;9.80;98.80
55785;DHT22;41709;52.536;5.688;2024-02-14T06:06:33;9.80;99.00
55785;DHT22;41709;52.536;5.688;2024-02-14T06:08:58;9.80;98.70
55785;DHT22;41709;52.536;5.688;2024-02-14T06:11:24;9.90;98.80
55785;DHT22;41709;52.536;5.688;2024-02-14T06:13:49;9.90;98.70
55785;DHT22;41709;52.536;5.688;2024-02-14T06:16:15;9.90;98.70
55785;DHT22;41709;52.536;5.688;2024-02-14T06:18:41;9.90;98.70
55785;DHT22;41709;52.536;5.688;2024-02-14T06:21:06;10.00;98.60
55785;DHT22;41709;52.536;5.688;2024-02-14T06:23:32;9.90;98.70
55785;DHT22;41709;52.536;5.688;2024-02-14T06:25:58;10.00;98.70
55785;DHT22;41709;52.536;5.688;2024-02-14T06:28:24;10.00;98.70
55785;DHT22;41709;52.536;5.688;2024-02-14T06:30:49;10.00;98.80
55785;DHT22;41709;52.536;5.688;2024-02-14T06:33:15;10.00;98.70
55785;DHT22;41709;52.536;5.688;2024-02-14T06:35:41;10.00;98.60
55785;DHT22;41709;52.536;5.688;2024-02-14T06:38:06;10.10;98.60
55785;DHT22;41709;52.536;5.688;2024-02-14T06:40:32;10.10;98.50
55785;DHT22;41709;52.536;5.688;2024-02-14T06:42:58;10.10;98.50
55785;DHT22;41709;52.536;5.688;2024-02-14T06:45:25;10.10;98.50
55785;DHT22;41709;52.536;5.688;2024-02-14T06:47:51;10.10;98.60
55785;DHT22;41709;52.536;5.688;2024-02-14T06:50:18;10.10;98.50
55785;DHT22;41709;52.536;5.688;2024-02-14T06:52:45;10.10;98.40
55785;DHT22;41709;52.536;5.688;2024-02-14T06:55:11;10.10;98.40
55785;DHT22;41709;52.536;5.688;2024-02-14T06:57:37;10.10;98.40
55785;DHT22;41709;52.536;5.688;2024-02-14T07:00:04;10.10;98.50
55785;DHT22;41709;52.536;5.688;2024-02-14T07:02:31;10.20;98.50
55785;DHT22;41709;52.536;5.688;2024-02-14T07:04:57;10.20;98.50
55785;DHT22;41709;52.536;5.688;2024-02-14T07:07:23;10.20;98.50
55785;DHT22;41709;52.536;5.688;2024-02-14T07:09:48;10.20;98.40
55785;DHT22;41709;52.536;5.688;2024-02-14T07:12:14;10.30;98.40
55785;DHT22;41709;52.536;5.688;2024-02-14T07:14:39;10.30;98.20
55785;DHT22;41709;52.536;5.688;2024-02-14T07:17:05;10.20;98.30
55785;DHT22;41709;52.536;5.688;2024-02-14T07:19:30;10.30;98.30
55785;DHT22;41709;52.536;5.688;2024-02-14T07:21:56;10.30;98.30
55785;DHT22;41709;52.536;5.688;2024-02-14T07:24:21;10.30;98.30
55785;DHT22;41709;52.536;5.688;2024-02-14T07:26:47;10.30;98.30
55785;DHT22;41709;52.536;5.688;2024-02-14T07:29:13;10.30;98.10
55785;DHT22;41709;52.536;5.688;2024-02-14T07:31:38;10.30;98.20
55785;DHT22;41709;52.536;5.688;2024-02-14T07:34:04;10.30;98.20
55785;DHT22;41709;52.536;5.688;2024-02-14T07:36:31;10.40;98.20
55785;DHT22;41709;52.536;5.688;2024-02-14T07:38:56;10.40;98.10
55785;DHT22;41709;52.536;5.688;2024-02-14T07:41:22;10.40;98.00
55785;DHT22;41709;52.536;5.688;2024-02-14T07:43:48;10.40;98.20
55785;DHT22;41709;52.536;5.688;2024-02-14T07:46:20;10.40;98.20
55785;DHT22;41709;52.536;5.688;2024-02-14T07:48:47;10.40;98.10
55785;DHT22;41709;52.536;5.688;2024-02-14T07:51:14;10.40;98.10
55785;DHT22;41709;52.536;5.688;2024-02-14T07:53:39;10.40;98.00
55785;DHT22;41709;52.536;5.688;2024-02-14T07:56:05;10.50;98.10
55785;DHT22;41709;52.536;5.688;2024-02-14T07:58:31;10.50;98.10
55785;DHT22;41709;52.536;5.688;2024-02-14T08:00:56;10.50;98.00
55785;DHT22;41709;52.536;5.688;2024-02-14T08:03:22;10.50;98.00
55785;DHT22;41709;52.536;5.688;2024-02-14T08:05:47;10.60;98.00
55785;DHT22;41709;52.536;5.688;2024-02-14T08:08:13;10.60;97.90
55785;DHT22;41709;52.536;5.688;2024-02-14T08:10:39;10.60;97.90
55785;DHT22;41709;52.536;5.688;2024-02-14T08:13:04;10.70;97.90
55785;DHT22;41709;52.536;5.688;2024-02-14T08:15:30;10.70;97.90
55785;DHT22;41709;52.536;5.688;2024-02-14T08:17:56;10.60;97.80
55785;DHT22;41709;52.536;5.688;2024-02-14T08:20:22;10.60;97.90
55785;DHT22;41709;52.536;5.688;2024-02-14T08:22:49;10.60;97.90
55785;DHT22;41709;52.536;5.688;2024-02-14T08:25:14;10.60;98.20
55785;DHT22;41709;52.536;5.688;2024-02-14T08:27:40;10.60;97.90
55785;DHT22;41709;52.536;5.688;2024-02-14T08:30:06;10.70;97.90
55785;DHT22;41709;52.536;5.688;2024-02-14T08:32:33;10.70;97.90
55785;DHT22;41709;52.536;5.688;2024-02-14T08:34:59;10.70;97.90
55785;DHT22;41709;52.536;5.688;2024-02-14T08:37:25;10.70;97.80
55785;DHT22;41709;52.536;5.688;2024-02-14T08:39:50;10.80;97.70
55785;DHT22;41709;52.536;5.688;2024-02-14T08:42:16;10.80;97.60
55785;DHT22;41709;52.536;5.688;2024-02-14T08:44:42;10.80;97.60
55785;DHT22;41709;52.536;5.688;2024-02-14T08:47:07;10.80;97.90
55785;DHT22;41709;52.536;5.688;2024-02-14T08:49:34;10.80;97.70
55785;DHT22;41709;52.536;5.688;2024-02-14T08:51:59;10.80;97.70
55785;DHT22;41709;52.536;5.688;2024-02-14T08:54:25;10.80;97.80
55785;DHT22;41709;52.536;5.688;2024-02-14T08:56:52;10.80;97.80
55785;DHT22;41709;52.536;5.688;2024-02-14T08:59:21;10.80;97.80
55785;DHT22;41709;52.536;5.688;2024-02-14T09:01:47;10.80;97.80
55785;DHT22;41709;52.536;5.688;2024-02-14T09:04:13;10.90;97.80
55785;DHT22;41709;52.536;5.688;2024-02-14T09:06:39;10.80;97.70
55785;DHT22;41709;52.536;5.688;2024-02-14T09:09:06;10.90;97.70
55785;DHT22;41709;52.536;5.688;2024-02-14T09:11:32;10.80;97.60
55785;DHT22;41709;52.536;5.688;2024-02-14T09:13:57;10.80;97.70
55785;DHT22;41709;52.536;5.688;2024-02-14T09:16:30;10.90;97.80
55785;DHT22;41709;52.536;5.688;2024-02-14T09:18:56;10.90;97.70
55785;DHT22;41709;52.536;5.688;2024-02-14T09:21:21;10.90;97.60
55785;DHT22;41709;52.536;5.688;2024-02-14T09:23:47;10.90;97.70
55785;DHT22;41709;52.536;5.688;2024-02-14T09:26:13;10.90;97.70
55785;DHT22;41709;52.536;5.688;2024-02-14T09:28:43;10.90;97.70
55785;DHT22;41709;52.536;5.688;2024-02-14T09:31:08;10.90;97.70
55785;DHT22;41709;52.536;5.688;2024-02-14T09:33:37;10.90;97.90
55785;DHT22;41709;52.536;5.688;2024-02-14T09:36:03;10.90;98.00
55785;DHT22;41709;52.536;5.688;2024-02-14T09:38:30;10.90;97.70
55785;DHT22;41709;52.536;5.688;2024-02-14T09:41:25;10.90;97.80
55785;DHT22;41709;52.536;5.688;2024-02-14T09:43:49;10.90;97.90
55785;DHT22;41709;52.536;5.688;2024-02-14T09:46:15;10.90;98.00
55785;DHT22;41709;52.536;5.688;2024-02-14T09:48:44;10.90;97.90
55785;DHT22;41709;52.536;5.688;2024-02-14T09:51:10;10.90;98.10
55785;DHT22;41709;52.536;5.688;2024-02-14T09:53:36;11.00;98.20
55785;DHT22;41709;52.536;5.688;2024-02-14T09:56:02;10.90;98.10
55785;DHT22;41709;52.536;5.688;2024-02-14T09:58:28;11.00;98.10
55785;DHT22;41709;52.536;5.688;2024-02-14T10:01:01;11.00;98.10
55785;DHT22;41709;52.536;5.688;2024-02-14T10:03:26;11.00;98.10
55785;DHT22;41709;52.536;5.688;2024-02-14T10:05:52;11.00;98.20
55785;DHT22;41709;52.536;5.688;2024-02-14T10:08:18;11.00;98.10
55785;DHT22;41709;52.536;5.688;2024-02-14T10:10:44;11.00;98.00
55785;DHT22;41709;52.536;5.688;2024-02-14T10:13:09;11.00;98.10
55785;DHT22;41709;52.536;5.688;2024-02-14T10:15:35;11.10;98.20
55785;DHT22;41709;52.536;5.688;2024-02-14T10:18:02;11.10;98.10
55785;DHT22;41709;52.536;5.688;2024-02-14T10:20:28;11.10;98.00
55785;DHT22;41709;52.536;5.688;2024-02-14T10:23:04;11.10;97.90
55785;DHT22;41709;52.536;5.688;2024-02-14T10:25:30;11.10;97.90
55785;DHT22;41709;52.536;5.688;2024-02-14T10:28:04;11.10;97.90
55785;DHT22;41709;52.536;5.688;2024-02-14T10:30:31;11.10;98.00
55785;DHT22;41709;52.536;5.688;2024-02-14T10:32:58;11.20;98.00
55785;DHT22;41709;52.536;5.688;2024-02-14T10:35:24;11.20;97.90
55785;DHT22;41709;52.536;5.688;2024-02-14T10:37:50;11.20;97.90
55785;DHT22;41709;52.536;5.688;2024-02-14T10:40:17;11.20;98.00
55785;DHT22;41709;52.536;5.688;2024-02-14T10:42:44;11.30;98.00
55785;DHT22;41709;52.536;5.688;2024-02-14T10:45:09;11.30;98.00
55785;DHT22;41709;52.536;5.688;2024-02-14T10:47:35;11.30;98.00
55785;DHT22;41709;52.536;5.688;2024-02-14T10:50:05;11.30;97.90
55785;DHT22;41709;52.536;5.688;2024-02-14T10:52:36;11.40;97.80
55785;DHT22;41709;52.536;5.688;2024-02-14T10:55:03;11.40;97.70
55785;DHT22;41709;52.536;5.688;2024-02-14T10:57:30;11.40;97.60
55785;DHT22;41709;52.536;5.688;2024-02-14T10:59:59;11.40;97.70
55785;DHT22;41709;52.536;5.688;2024-02-14T11:02:26;11.40;97.50
55785;DHT22;41709;52.536;5.688;2024-02-14T11:04:56;11.40;97.50
55785;DHT22;41709;52.536;5.688;2024-02-14T11:07:21;11.50;97.50
55785;DHT22;41709;52.536;5.688;2024-02-14T11:09:52;11.50;97.40
55785;DHT22;41709;52.536;5.688;2024-02-14T11:12:25;11.50;97.20
55785;DHT22;41709;52.536;5.688;2024-02-14T11:14:51;11.50;97.30
55785;DHT22;41709;52.536;5.688;2024-02-14T11:17:19;11.60;97.20
55785;DHT22;41709;52.536;5.688;2024-02-14T11:19:50;11.60;97.10
55785;DHT22;41709;52.536;5.688;2024-02-14T11:22:21;11.60;97.10
55785;DHT22;41709;52.536;5.688;2024-02-14T11:24:47;11.60;97.10
55785;DHT22;41709;52.536;5.688;2024-02-14T11:27:14;11.60;97.10
55785;DHT22;41709;52.536;5.688;2024-02-14T11:29:40;11.50;97.10
55785;DHT22;41709;52.536;5.688;2024-02-14T11:32:07;11.50;97.20
55785;DHT22;41709;52.536;5.688;2024-02-14T11:34:35;11.50;97.20
55785;DHT22;41709;52.536;5.688;2024-02-14T11:37:01;11.50;97.10
55785;DHT22;41709;52.536;5.688;2024-02-14T11:39:27;11.60;97.10
55785;DHT22;41709;52.536;5.688;2024-02-14T11:41:52;11.60;97.00
55785;DHT22;41709;52.536;5.688;2024-02-14T11:44:21;11.60;97.10
55785;DHT22;41709;52.536;5.688;2024-02-14T11:46:51;11.70;97.00
55785;DHT22;41709;52.536;5.688;2024-02-14T11:49:17;11.60;97.00
55785;DHT22;41709;52.536;5.688;2024-02-14T11:51:42;11.60;97.00
55785;DHT22;41709;52.536;5.688;2024-02-14T11:54:09;11.70;97.00
55785;DHT22;41709;52.536;5.688;2024-02-14T11:56:38;11.60;97.00
55785;DHT22;41709;52.536;5.688;2024-02-14T11:59:05;11.60;97.30
55785;DHT22;41709;52.536;5.688;2024-02-14T12:01:32;11.70;97.00
55785;DHT22;41709;52.536;5.688;2024-02-14T12:03:59;11.70;97.00
55785;DHT22;41709;52.536;5.688;2024-02-14T12:06:29;11.70;96.90
55785;DHT22;41709;52.536;5.688;2024-02-14T12:09:03;11.60;97.00
55785;DHT22;41709;52.536;5.688;2024-02-14T12:11:38;11.70;97.00
55785;DHT22;41709;52.536;5.688;2024-02-14T12:14:08;11.70;97.00
55785;DHT22;41709;52.536;5.688;2024-02-14T12:16:35;11.70;97.10
55785;DHT22;41709;52.536;5.688;2024-02-14T12:19:06;11.70;97.10
55785;DHT22;41709;52.536;5.688;2024-02-14T12:21:37;11.70;97.10
55785;DHT22;41709;52.536;5.688;2024-02-14T12:24:08;11.70;97.10
55785;DHT22;41709;52.536;5.688;2024-02-14T12:26:35;11.70;97.10
55785;DHT22;41709;52.536;5.688;2024-02-14T12:29:03;11.70;97.10
55785;DHT22;41709;52.536;5.688;2024-02-14T12:31:32;11.70;97.50
55785;DHT22;41709;52.536;5.688;2024-02-14T12:33:59;11.80;97.20
55785;DHT22;41709;52.536;5.688;2024-02-14T12:36:27;11.80;97.20
55785;DHT22;41709;52.536;5.688;2024-02-14T12:38:54;11.80;97.20
55785;DHT22;41709;52.536;5.688;2024-02-14T12:41:21;11.80;97.20
55785;DHT22;41709;52.536;5.688;2024-02-14T12:43:49;11.80;97.30
55785;DHT22;41709;52.536;5.688;2024-02-14T12:46:15;11.90;97.40
55785;DHT22;41709;52.536;5.688;2024-02-14T12:48:41;11.90;97.50
55785;DHT22;41709;52.536;5.688;2024-02-14T12:51:07;11.80;97.50
55785;DHT22;41709;52.536;5.688;2024-02-14T12:53:33;11.90;97.60
55785;DHT22;41709;52.536;5.688;2024-02-14T12:55:59;12.00;97.60
55785;DHT22;41709;52.536;5.688;2024-02-14T12:58:25;12.00;97.60
55785;DHT22;41709;52.536;5.688;2024-02-14T13:00:50;12.00;97.50
55785;DHT22;41709;52.536;5.688;2024-02-14T13:03:16;12.10;97.40
55785;DHT22;41709;52.536;5.688;2024-02-14T13:05:41;12.10;97.30
55785;DHT22;41709;52.536;5.688;2024-02-14T13:08:07;12.20;97.20
55785;DHT22;41709;52.536;5.688;2024-02-14T13:10:34;12.10;97.40
55785;DHT22;41709;52.536;5.688;2024-02-14T13:13:00;12.10;97.00
55785;DHT22;41709;52.536;5.688;2024-02-14T13:15:25;12.10;96.90
55785;DHT22;41709;52.536;5.688;2024-02-14T13:17:51;12.10;97.00
55785;DHT22;41709;52.536;5.688;2024-02-14T13:20:16;12.10;97.00
55785;DHT22;41709;52.536;5.688;2024-02-14T13:22:42;12.10;97.00
55785;DHT22;41709;52.536;5.688;2024-02-14T13:25:08;12.10;97.10
55785;DHT22;41709;52.536;5.688;2024-02-14T13:27:34;12.10;97.10
55785;DHT22;41709;52.536;5.688;2024-02-14T13:30:01;12.10;97.10
55785;DHT22;41709;52.536;5.688;2024-02-14T13:32:26;12.10;97.00
55785;DHT22;41709;52.536;5.688;2024-02-14T13:34:52;12.00;97.00
55785;DHT22;41709;52.536;5.688;2024-02-14T13:37:18;12.10;97.10
55785;DHT22;41709;52.536;5.688;2024-02-14T13:39:45;12.10;97.20
55785;DHT22;41709;52.536;5.688;2024-02-14T13:42:10;12.10;97.40
55785;DHT22;41709;52.536;5.688;2024-02-14T13:44:36;12.00;97.20
55785;DHT22;41709;52.536;5.688;2024-02-14T13:47:02;12.10;97.20
55785;DHT22;41709;52.536;5.688;2024-02-14T13:49:28;12.00;97.20
55785;DHT22;41709;52.536;5.688;2024-02-14T13:51:54;12.10;97.30
55785;DHT22;41709;52.536;5.688;2024-02-14T13:54:20;12.10;97.30
55785;DHT22;41709;52.536;5.688;2024-02-14T13:56:46;12.10;97.30
55785;DHT22;41709;52.536;5.688;2024-02-14T13:59:14;12.10;97.10
55785;DHT22;41709;52.536;5.688;2024-02-14T14:01:39;12.10;97.10
55785;DHT22;41709;52.536;5.688;2024-02-14T14:04:05;12.10;97.20
55785;DHT22;41709;52.536;5.688;2024-02-14T14:06:31;12.10;97.20
55785;DHT22;41709;52.536;5.688;2024-02-14T14:08:57;12.10;97.20
55785;DHT22;41709;52.536;5.688;2024-02-14T14:11:22;12.10;97.20
55785;DHT22;41709;52.536;5.688;2024-02-14T14:13:48;12.20;97.10
55785;DHT22;41709;52.536;5.688;2024-02-14T14:16:14;12.20;97.20
55785;DHT22;41709;52.536;5.688;2024-02-14T14:18:40;12.20;97.10
55785;DHT22;41709;52.536;5.688;2024-02-14T14:21:06;12.20;97.20
55785;DHT22;41709;52.536;5.688;2024-02-14T14:23:32;12.20;97.10
55785;DHT22;41709;52.536;5.688;2024-02-14T14:25:58;12.30;97.10
55785;DHT22;41709;52.536;5.688;2024-02-14T14:28:24;12.20;97.10
55785;DHT22;41709;52.536;5.688;2024-02-14T14:30:55;12.20;97.00
55785;DHT22;41709;52.536;5.688;2024-02-14T14:33:21;12.30;97.00
55785;DHT22;41709;52.536;5.688;2024-02-14T14:35:47;12.30;96.90
55785;DHT22;41709;52.536;5.688;2024-02-14T14:38:18;12.30;97.20
55785;DHT22;41709;52.536;5.688;2024-02-14T14:40:43;12.30;96.90
55785;DHT22;41709;52.536;5.688;2024-02-14T14:43:11;12.30;96.90
55785;DHT22;41709;52.536;5.688;2024-02-14T14:45:37;12.30;96.90
55785;DHT22;41709;52.536;5.688;2024-02-14T14:48:04;12.30;96.90
55785;DHT22;41709;52.536;5.688;2024-02-14T14:50:30;12.30;96.90
55785;DHT22;41709;52.536;5.688;2024-02-14T14:52:57;12.30;96.90
55785;DHT22;41709;52.536;5.688;2024-02-14T14:55:24;12.30;96.90
55785;DHT22;41709;52.536;5.688;2024-02-14T14:57:49;12.30;96.90
55785;DHT22;41709;52.536;5.688;2024-02-14T15:00:15;12.30;96.90
55785;DHT22;41709;52.536;5.688;2024-02-14T15:02:42;12.20;97.00
55785;DHT22;41709;52.536;5.688;2024-02-14T15:05:12;12.20;97.10
55785;DHT22;41709;52.536;5.688;2024-02-14T15:07:41;12.20;97.00
55785;DHT22;41709;52.536;5.688;2024-02-14T15:10:06;12.20;97.10
55785;DHT22;41709;52.536;5.688;2024-02-14T15:12:36;12.20;97.30
55785;DHT22;41709;52.536;5.688;2024-02-14T15:15:05;12.30;97.10
55785;DHT22;41709;52.536;5.688;2024-02-14T15:17:31;12.30;97.00
55785;DHT22;41709;52.536;5.688;2024-02-14T15:19:57;12.30;97.20
55785;DHT22;41709;52.536;5.688;2024-02-14T15:22:22;12.40;97.00
55785;DHT22;41709;52.536;5.688;2024-02-14T15:24:50;12.30;97.00
55785;DHT22;41709;52.536;5.688;2024-02-14T15:27:17;12.30;97.10
55785;DHT22;41709;52.536;5.688;2024-02-14T15:29:48;12.20;97.00
55785;DHT22;41709;52.536;5.688;2024-02-14T15:32:33;12.20;97.00